地図

経路データ

SID SEASON NUMBER BASIN SUBBASIN NAME ISO_TIME NATURE LAT LON WMO_WIND WMO_PRES WMO_AGENCY TRACK_TYPE DIST2LAND LANDFALL IFLAG USA_AGENCY USA_ATCF_ID USA_LAT USA_LON USA_RECORD USA_STATUS USA_WIND USA_PRES USA_SSHS USA_R34_NE USA_R34_SE USA_R34_SW USA_R34_NW USA_R50_NE USA_R50_SE USA_R50_SW USA_R50_NW USA_R64_NE USA_R64_SE USA_R64_SW USA_R64_NW USA_POCI USA_ROCI USA_RMW USA_EYE TOKYO_LAT TOKYO_LON TOKYO_GRADE TOKYO_WIND TOKYO_PRES TOKYO_R50_DIR TOKYO_R50_LONG TOKYO_R50_SHORT TOKYO_R30_DIR TOKYO_R30_LONG TOKYO_R30_SHORT TOKYO_LAND CMA_LAT CMA_LON CMA_CAT CMA_WIND CMA_PRES HKO_LAT HKO_LON HKO_CAT HKO_WIND HKO_PRES NEWDELHI_LAT NEWDELHI_LON NEWDELHI_GRADE NEWDELHI_WIND NEWDELHI_PRES NEWDELHI_CI NEWDELHI_DP NEWDELHI_POCI REUNION_LAT REUNION_LON REUNION_TYPE REUNION_WIND REUNION_PRES REUNION_TNUM REUNION_CI REUNION_RMW REUNION_R34_NE REUNION_R34_SE REUNION_R34_SW REUNION_R34_NW REUNION_R50_NE REUNION_R50_SE REUNION_R50_SW REUNION_R50_NW REUNION_R64_NE REUNION_R64_SE REUNION_R64_SW REUNION_R64_NW BOM_LAT BOM_LON BOM_TYPE BOM_WIND BOM_PRES BOM_TNUM BOM_CI BOM_RMW BOM_R34_NE BOM_R34_SE BOM_R34_SW BOM_R34_NW BOM_R50_NE BOM_R50_SE BOM_R50_SW BOM_R50_NW BOM_R64_NE BOM_R64_SE BOM_R64_SW BOM_R64_NW BOM_ROCI BOM_POCI BOM_EYE BOM_POS_METHOD BOM_PRES_METHOD NADI_LAT NADI_LON NADI_CAT NADI_WIND NADI_PRES WELLINGTON_LAT WELLINGTON_LON WELLINGTON_WIND WELLINGTON_PRES DS824_LAT DS824_LON DS824_STAGE DS824_WIND DS824_PRES TD9636_LAT TD9636_LON TD9636_STAGE TD9636_WIND TD9636_PRES TD9635_LAT TD9635_LON TD9635_WIND TD9635_PRES TD9635_ROCI NEUMANN_LAT NEUMANN_LON NEUMANN_CLASS NEUMANN_WIND NEUMANN_PRES MLC_LAT MLC_LON MLC_CLASS MLC_WIND MLC_PRES USA_GUST BOM_GUST BOM_GUST_PER REUNION_GUST REUNION_GUST_PER USA_SEAHGT USA_SEARAD_NE USA_SEARAD_SE USA_SEARAD_SW USA_SEARAD_NW STORM_SPEED STORM_DIR
1860112S11086 1860 16 SI MM NOT_NAMED 1860-04-21 06:00:00 NR -10.9000 85.7000 main 1786 1786 _____O________ -1 -10.9000 85.7000 99 9.90000 11 273
1860112S11086 1860 16 SI MM NOT_NAMED 1860-04-21 09:00:00 NR -10.8658 85.1297 main 1840 1840 _____P________ -1 -10.8658 85.1297 99 11 273
1860112S11086 1860 16 SI MM NOT_NAMED 1860-04-21 12:00:00 NR -10.8329 84.5613 main 1880 1880 _____P________ -1 -10.8329 84.5613 99 11 273
1860112S11086 1860 16 SI MM NOT_NAMED 1860-04-21 15:00:00 NR -10.8038 83.9968 main 1908 1898 _____P________ -1 -10.8038 83.9968 99 11 273
1860112S11086 1860 16 SI MM NOT_NAMED 1860-04-21 18:00:00 NR -10.7809 83.4382 main 1896 1888 _____P________ -1 -10.7809 83.4382 99 11 272
1860112S11086 1860 16 SI MM NOT_NAMED 1860-04-21 21:00:00 NR -10.7666 82.8873 main 1888 1881 _____P________ -1 -10.7666 82.8873 99 11 271
1860112S11086 1860 16 SI MM NOT_NAMED 1860-04-22 00:00:00 NR -10.7634 82.3462 main 1880 1875 _____P________ -1 -10.7634 82.3462 99 11 270
1860112S11086 1860 16 SI MM NOT_NAMED 1860-04-22 03:00:00 NR -10.7737 81.8165 main 1875 1872 _____P________ -1 -10.7737 81.8165 99 10 268
1860112S11086 1860 16 SI MM NOT_NAMED 1860-04-22 06:00:00 NR -10.8000 81.3000 main 1872 1871 _____O________ -1 -10.8000 81.3000 99 9.90000 10 266
1860112S11086 1860 16 SI MM NOT_NAMED 1860-04-22 09:00:00 NR -10.8441 80.7985 main 1871 1871 _____P________ -1 -10.8441 80.7985 99 10 264
1860112S11086 1860 16 SI MM NOT_NAMED 1860-04-22 12:00:00 NR -10.9046 80.3143 main 1882 1882 _____P________ -1 -10.9046 80.3143 99 9 262
1860112S11086 1860 16 SI MM NOT_NAMED 1860-04-22 15:00:00 NR -10.9795 79.8495 main 1895 1895 _____P________ -1 -10.9795 79.8495 99 9 260
1860112S11086 1860 16 SI MM NOT_NAMED 1860-04-22 18:00:00 NR -11.0668 79.4064 main 1909 1909 _____P________ -1 -11.0668 79.4064 99 9 258
1860112S11086 1860 16 SI MM NOT_NAMED 1860-04-22 21:00:00 NR -11.1645 78.9876 main 1924 1924 _____P________ -1 -11.1645 78.9876 99 8 256
1860112S11086 1860 16 SI MM NOT_NAMED 1860-04-23 00:00:00 NR -11.2706 78.5952 main 1939 1939 _____P________ -1 -11.2706 78.5952 99 8 254
1860112S11086 1860 16 SI MM NOT_NAMED 1860-04-23 03:00:00 NR -11.3831 78.2319 main 1956 1956 _____P________ -1 -11.3831 78.2319 99 7 251
1860112S11086 1860 16 SI MM NOT_NAMED 1860-04-23 06:00:00 NR -11.5000 77.9000 reunion main 1972 1972 _____O________ -1 -11.5000 77.9000 99 9.90000 7 249
1860112S11086 1860 16 SI MM NOT_NAMED 1860-04-23 09:00:00 NR -11.6196 77.6009 main 1988 1988 _____P________ -1 -11.6196 77.6009 99 6 247
1860112S11086 1860 16 SI MM NOT_NAMED 1860-04-23 12:00:00 NR -11.7413 77.3315 main 2005 2005 _____P________ -1 -11.7413 77.3315 99 6 244
1860112S11086 1860 16 SI MM NOT_NAMED 1860-04-23 15:00:00 NR -11.8648 77.0875 main 2031 2031 _____P________ -1 -11.8648 77.0875 99 5 241
1860112S11086 1860 16 SI MM NOT_NAMED 1860-04-23 18:00:00 NR -11.9900 76.8647 main 2046 2046 _____P________ -1 -11.9900 76.8647 99 5 239
1860112S11086 1860 16 SI MM NOT_NAMED 1860-04-23 21:00:00 NR -12.1164 76.6589 main 2062 2062 _____P________ -1 -12.1164 76.6589 99 5 237
1860112S11086 1860 16 SI MM NOT_NAMED 1860-04-24 00:00:00 NR -12.2438 76.4656 main 2078 2078 _____P________ -1 -12.2438 76.4656 99 5 235
1860112S11086 1860 16 SI MM NOT_NAMED 1860-04-24 03:00:00 NR -12.3718 76.2808 main 2104 2104 _____P________ -1 -12.3718 76.2808 99 4 234
1860112S11086 1860 16 SI MM NOT_NAMED 1860-04-24 06:00:00 NR -12.5000 76.1000 reunion main 2120 _____O________ -1 -12.5000 76.1000 99 9.90000 4 234

IBTrACS Databaseについて

本データベースは、米国NOAAが公開する1842年以降の世界の熱帯低気圧のベストトラックデータアーカイブInternational Best Track Archive for Climate Stewardship (IBTrACS)を、ウェブで閲覧しやすい形式に変換したものです。

最終更新日:2021-10-08